Time;durP1;ratioP1;P1;durP2;ratioP2;P2;SDS_P1;SDS_P2;PMS_P1;PMS_P2;Temp;Humidity;BMP_temperature;BMP_pressure;BME280_temperature;BME280_humidity;BME280_pressure;Samples;Min_cycle;Max_cycle;Signal;HPM_P1;HPM_P2
2022/06/16 00:02:01;;;;;;;4.00;2.67;;;;;;;;;;4935198;29;20760;-76
2022/06/16 00:04:27;;;;;;;5.35;2.78;;;;;;;;;;4934906;29;20512;-76
2022/06/16 00:06:55;;;;;;;5.55;2.40;;;;;;;;;;4938819;28;20035;-76
2022/06/16 00:09:21;;;;;;;4.03;2.55;;;;;;;;;;4944450;29;20028;-76
2022/06/16 00:11:47;;;;;;;4.97;2.67;;;;;;;;;;4932224;29;20409;-76
2022/06/16 00:14:13;;;;;;;6.10;2.50;;;;;;;;;;4933925;29;20407;-76
2022/06/16 00:16:39;;;;;;;8.10;4.47;;;;;;;;;;4932453;29;20047;-76
2022/06/16 00:19:05;;;;;;;3.33;2.28;;;;;;;;;;4933116;29;20050;-76
2022/06/16 00:21:31;;;;;;;9.98;3.75;;;;;;;;;;4941060;28;20123;-76
2022/06/16 00:23:57;;;;;;;12.02;3.08;;;;;;;;;;4942195;29;20490;-76
2022/06/16 00:26:24;;;;;;;4.80;2.38;;;;;;;;;;4934014;29;20039;-77
2022/06/16 00:28:51;;;;;;;9.70;2.55;;;;;;;;;;4932147;29;20025;-76
2022/06/16 00:31:18;;;;;;;12.13;4.97;;;;;;;;;;4931217;29;20186;-76
2022/06/16 00:33:44;;;;;;;6.85;2.50;;;;;;;;;;4930634;29;20034;-76
2022/06/16 00:36:10;;;;;;;6.65;3.80;;;;;;;;;;4932435;29;20032;-75
2022/06/16 00:38:36;;;;;;;8.88;2.25;;;;;;;;;;4933142;29;20031;-76
2022/06/16 00:41:03;;;;;;;6.68;3.28;;;;;;;;;;4940888;29;20030;-76
2022/06/16 00:43:29;;;;;;;9.55;3.25;;;;;;;;;;4936962;28;20027;-76
2022/06/16 00:45:55;;;;;;;12.70;4.63;;;;;;;;;;4939572;28;20039;-76
2022/06/16 00:48:33;;;;;;;6.35;2.03;;;;;;;;;;4936697;29;20024;-76
2022/06/16 00:51:04;;;;;;;8.95;3.00;;;;;;;;;;4926067;29;20035;-76
2022/06/16 00:53:30;;;;;;;11.07;2.97;;;;;;;;;;4943635;29;20110;-76
2022/06/16 00:55:56;;;;;;;8.63;3.50;;;22.00;87.30;;;;;;4931812;29;20028;-77
2022/06/16 00:58:23;;;;;;;7.47;2.57;;;;;;;;;;4933028;29;20098;-76
2022/06/16 01:00:51;;;;;;;5.20;3.33;;;22.00;87.60;;;;;;4939939;28;20039;-75
2022/06/16 01:04:51;;;;;;;6.90;3.30;;;;;;;;;;4931894;29;20035;-76
2022/06/16 01:06:16;;;;;;;5.93;3.63;;;;;;;;;;4931484;29;20394;-76
2022/06/16 01:08:42;;;;;;;4.43;2.92;;;;;;;;;;4932613;29;20046;-76
2022/06/16 01:11:13;;;;;;;7.70;4.00;;;;;;;;;;4941654;29;20027;-76
2022/06/16 01:13:50;;;;;;;10.65;4.55;;;21.80;88.90;;;;;;4935466;28;20027;-76
2022/06/16 01:16:21;;;;;;;7.40;2.42;;;;;;;;;;4933998;28;20210;-76
2022/06/16 01:18:56;;;;;;;10.30;3.47;;;21.70;98.70;;;;;;4931300;29;20546;-77
2022/06/16 01:21:22;;;;;;;6.78;3.75;;;;;;;;;;4940628;28;20036;-76
2022/06/16 01:23:55;;;;;;;5.05;2.58;;;;;;;;;;4941512;29;20102;-76
2022/06/16 01:26:37;;;;;;;7.47;4.88;;;21.80;89.50;;;;;;4943920;29;20050;-76
2022/06/16 01:29:20;;;;;;;7.93;3.67;;;;;;;;;;4934131;29;20024;-76
2022/06/16 01:32:07;;;;;;;3.53;2.58;;;21.60;90.30;;;;;;4928380;29;20039;-77
2022/06/16 01:34:36;;;;;;;8.10;2.80;;;;;;;;;;4930283;29;20106;-76
2022/06/16 01:37:17;;;;;;;12.52;4.40;;;21.40;90.70;;;;;;4921103;29;20084;-77
2022/06/16 01:40:00;;;;;;;6.93;3.45;;;21.50;90.70;;;;;;4931814;29;20035;-76
2022/06/16 01:42:35;;;;;;;11.00;3.65;;;;;;;;;;4930965;29;20083;-76
2022/06/16 01:45:09;;;;;;;3.15;2.85;;;21.50;90.60;;;;;;4930907;29;20055;-77
2022/06/16 01:47:37;;;;;;;5.45;2.33;;;;;;;;;;4942622;29;20418;-76
2022/06/16 01:50:10;;;;;;;6.38;2.58;;;;;;;;;;4931285;29;20564;-76
2022/06/16 01:52:38;;;;;;;7.43;3.08;;;;;;;;;;4934390;29;20033;-77
2022/06/16 01:55:29;;;;;;;8.35;3.95;;;21.50;90.80;;;;;;4935147;28;20027;-76
2022/06/16 01:57:57;;;;;;;9.52;3.25;;;;;;;;;;4945405;28;20028;-76
2022/06/16 02:00:25;;;;;;;10.23;3.70;;;21.50;90.60;;;;;;4941625;28;20429;-76
2022/06/16 02:03:11;;;;;;;10.35;4.47;;;;;;;;;;4939810;29;20548;-76
2022/06/16 02:05:37;;;;;;;4.50;3.40;;;;;;;;;;4931002;29;20134;-76
2022/06/16 02:08:09;;;;;;;9.30;3.38;;;;;;;;;;4931119;29;20159;-76
2022/06/16 02:10:40;;;;;;;7.60;4.07;;;21.50;91.10;;;;;;4928746;29;20034;-76
2022/06/16 02:13:09;;;;;;;3.65;2.42;;;21.40;91.30;;;;;;4929943;29;20028;-75
2022/06/16 02:15:54;;;;;;;8.45;4.25;;;;;;;;;;4940078;28;20055;-76
2022/06/16 02:18:27;;;;;;;5.75;3.97;;;21.30;91.40;;;;;;4930231;29;20031;-76
2022/06/16 02:21:14;;;;;;;2.97;2.30;;;21.20;91.50;;;;;;4931124;29;20038;-76
2022/06/16 02:23:41;;;;;;;9.30;3.53;;;;;;;;;;4930379;29;20501;-76
2022/06/16 02:26:07;;;;;;;12.85;3.33;;;;;;;;;;4940380;29;20555;-76
2022/06/16 02:28:53;;;;;;;9.32;3.33;;;;;;;;;;4934916;28;20559;-76
2022/06/16 02:31:19;;;;;;;11.63;3.33;;;;;;;;;;4932391;28;20427;-76
2022/06/16 02:33:54;;;;;;;12.07;3.03;;;;;;;;;;4929089;29;20114;-75
2022/06/16 02:36:30;;;;;;;8.48;4.18;;;;;;;;;;4929075;29;20453;-76
2022/06/16 02:39:08;;;;;;;5.53;2.92;;;21.20;91.60;;;;;;4935996;29;20471;-76
2022/06/16 02:41:51;;;;;;;8.68;2.90;;;21.10;92.00;;;;;;4941693;29;20114;-76
2022/06/16 02:44:43;;;;;;;3.75;3.22;;;21.00;92.20;;;;;;4927717;29;20441;-76
2022/06/16 02:47:44;;;;;;;11.15;3.25;;;;;;;;;;4935957;28;20059;-76
2022/06/16 02:50:13;;;;;;;9.95;3.47;;;;;;;;;;4941675;29;20031;-76
2022/06/16 02:52:45;;;;;;;8.25;3.70;;;21.00;92.00;;;;;;4929658;28;20027;-75
2022/06/16 02:55:15;;;;;;;3.50;3.20;;;;;;;;;;4930113;29;20032;-76
2022/06/16 02:57:44;;;;;;;10.02;4.05;;;;;;;;;;4938043;28;20024;-76
2022/06/16 03:00:15;;;;;;;5.38;3.70;;;;;;;;;;4940866;29;20039;-77
2022/06/16 03:02:42;;;;;;;5.65;3.40;;;21.10;92.10;;;;;;4940157;29;20028;-76
2022/06/16 03:05:09;;;;;;;8.05;3.22;;;;;;;;;;4931095;29;20063;-76
2022/06/16 03:07:35;;;;;;;5.78;2.83;;;;;;;;;;4932944;29;20042;-76
2022/06/16 03:10:03;;;;;;;8.13;4.03;;;;;;;;;;4934384;28;20460;-76
2022/06/16 03:12:29;;;;;;;5.38;4.07;;;;;;;;;;4927804;29;20074;-76
2022/06/16 03:14:55;;;;;;;8.43;2.70;;;;;;;;;;4938923;29;20076;-76
2022/06/16 03:17:21;;;;;;;12.20;3.10;;;;;;;;;;4942238;29;20126;-76
2022/06/16 03:19:47;;;;;;;6.35;3.35;;;20.50;99.90;;;;;;4935314;29;20035;-76
2022/06/16 03:22:13;;;;;;;7.07;4.22;;;;;;;;;;4934481;28;20445;-76
2022/06/16 03:24:39;;;;;;;5.72;3.00;;;;;;;;;;4932021;29;20024;-77
2022/06/16 03:27:06;;;;;;;10.38;3.42;;;;;;;;;;4932072;29;20401;-76
2022/06/16 03:29:32;;;;;;;19.10;3.65;;;;;;;;;;4945097;29;20031;-76
2022/06/16 03:31:58;;;;;;;5.05;3.45;;;;;;;;;;4933392;29;20119;-76
2022/06/16 03:34:24;;;;;;;8.52;3.45;;;20.40;93.50;;;;;;4932222;29;20031;-76
2022/06/16 03:36:51;;;;;;;9.38;3.15;;;;;;;;;;4932353;29;20024;-76
2022/06/16 03:39:17;;;;;;;4.43;3.28;;;;;;;;;;4931924;29;20036;-76
2022/06/16 03:41:43;;;;;;;10.55;3.85;;;;;;;;;;4933319;29;20074;-76
2022/06/16 03:44:10;;;;;;;19.95;5.18;;;;;;;;;;4943733;29;20046;-76
2022/06/16 03:46:36;;;;;;;7.88;3.67;;;;;;;;;;4938171;28;20035;-76
2022/06/16 03:49:02;;;;;;;4.20;3.80;;;;;;;;;;4937362;28;20103;-76
2022/06/16 03:51:28;;;;;;;9.60;4.50;;;;;;;;;;4931920;29;20516;-76
2022/06/16 03:53:54;;;;;;;6.85;3.42;;;;;;;;;;4942765;29;20032;-76
2022/06/16 03:56:20;;;;;;;6.55;4.20;;;20.60;99.90;;;;;;4945825;29;20028;-77
2022/06/16 03:58:46;;;;;;;5.70;3.83;;;;;;;;;;4932827;29;20063;-76
2022/06/16 04:01:12;;;;;;;5.00;2.95;;;;;;;;;;4930543;29;20098;-76
2022/06/16 04:06:22;;;;;;;8.80;5.35;;;;;;;;;;4942383;29;20058;-76
2022/06/16 04:08:48;;;;;;;17.15;5.32;;;21.10;99.90;;;;;;4942773;29;20493;-76
2022/06/16 04:11:32;;;;;;;15.88;4.40;;;;;;;;;;4944785;29;20073;-76
2022/06/16 04:14:10;;;;;;;5.00;3.35;;;21.10;93.30;;;;;;4934578;29;20031;-76
2022/06/16 04:16:38;;;;;;;13.95;3.60;;;;;;;;;;4937278;29;20794;-76
2022/06/16 04:19:04;;;;;;;3.50;2.53;;;;;;;;;;4937637;28;20023;-77
2022/06/16 04:21:31;;;;;;;4.97;2.93;;;;;;;;;;4941606;28;20031;-75
2022/06/16 04:23:57;;;;;;;5.43;3.13;;;;;;;;;;4931485;29;20095;-76
2022/06/16 04:26:23;;;;;;;7.03;3.60;;;;;;;;;;4933791;29;20035;-76
2022/06/16 04:28:49;;;;;;;7.75;3.10;;;;;;;;;;4932096;29;20718;-76
2022/06/16 04:31:16;;;;;;;4.03;3.20;;;;;;;;;;4931100;29;20036;-76
2022/06/16 04:33:42;;;;;;;5.15;3.42;;;;;;;;;;4931499;29;20031;-76
2022/06/16 04:36:08;;;;;;;6.15;3.15;;;;;;;;;;4943807;29;20396;-75
2022/06/16 04:38:35;;;;;;;9.90;3.13;;;;;;;;;;4931960;29;20032;-76
2022/06/16 04:41:01;;;;;;;6.07;4.05;;;;;;;;;;4931957;29;20074;-76
2022/06/16 04:43:27;;;;;;;6.63;4.20;;;;;;;;;;4932125;29;20489;-76
2022/06/16 04:45:55;;;;;;;9.23;4.10;;;;;;;;;;4931088;29;20046;-77
2022/06/16 04:48:20;;;;;;;4.05;2.72;;;21.50;99.90;;;;;;4942000;29;20049;-76
2022/06/16 04:50:46;;;;;;;5.53;3.80;;;;;;;;;;4931748;29;20043;-76
2022/06/16 04:53:12;;;;;;;5.38;3.35;;;21.70;99.50;;;;;;4933195;29;20489;-77
2022/06/16 04:55:38;;;;;;;10.55;4.45;;;;;;;;;;4935290;28;20038;-76
2022/06/16 04:58:05;;;;;;;9.40;4.18;;;21.70;92.80;;;;;;4936253;28;20023;-76
2022/06/16 05:00:31;;;;;;;5.10;3.50;;;;;;;;;;4931704;28;20063;-76
2022/06/16 05:02:57;;;;;;;8.88;3.50;;;;;;;;;;4941239;29;20036;-75
2022/06/16 05:05:23;;;;;;;5.07;3.42;;;;;;;;;;4933499;29;20043;-76
2022/06/16 05:07:50;;;;;;;12.60;4.00;;;;;;;;;;4939686;29;20543;-76
2022/06/16 05:10:16;;;;;;;5.55;3.38;;;;;;;;;;4934258;28;20115;-76
2022/06/16 05:12:42;;;;;;;5.00;3.38;;;;;;;;;;4931481;29;20067;-77
2022/06/16 05:15:08;;;;;;;7.05;3.53;;;;;;;;;;4941160;29;20075;-76
2022/06/16 05:17:34;;;;;;;12.65;3.35;;;;;;;;;;4943576;29;20027;-76
2022/06/16 05:20:00;;;;;;;5.18;2.92;;;;;;;;;;4933068;29;20374;-76
2022/06/16 05:22:26;;;;;;;8.20;3.13;;;;;;;;;;4931202;29;20491;-76
2022/06/16 05:24:52;;;;;;;5.43;3.35;;;;;;;;;;4929669;29;20056;-76
2022/06/16 05:27:18;;;;;;;7.50;3.88;;;22.70;97.70;;;;;;4931739;29;20067;-76
2022/06/16 05:29:44;;;;;;;12.55;3.33;;;22.70;98.30;;;;;;4932755;29;20040;-76
2022/06/16 05:32:10;;;;;;;5.43;3.50;;;;;;;;;;4931749;29;20040;-71
2022/06/16 05:34:36;;;;;;;11.85;5.20;;;;;;;;;;4931170;29;20031;-71
2022/06/16 05:37:03;;;;;;;7.53;3.88;;;;;;;;;;4927932;29;20169;-75
2022/06/16 05:39:28;;;;;;;9.90;3.90;;;23.00;98.80;;;;;;4928418;29;20028;-70
2022/06/16 05:41:54;;;;;;;21.17;3.60;;;;;;;;;;4932091;29;20051;-71
2022/06/16 05:44:20;;;;;;;13.50;4.22;;;;;;;;;;4931479;29;20028;-71
2022/06/16 05:46:46;;;;;;;11.18;3.83;;;;;;;;;;4930693;29;20051;-71
2022/06/16 05:49:15;;;;;;;9.98;5.60;;;;;;;;;;4929206;29;20378;-71
2022/06/16 05:51:41;;;;;;;11.73;4.75;;;;;;;;;;4925996;29;20035;-71
2022/06/16 05:54:06;;;;;;;9.50;4.00;;;23.70;95.50;;;;;;4939724;29;20520;-70
2022/06/16 05:56:33;;;;;;;12.05;3.92;;;;;;;;;;4930520;29;20028;-71
2022/06/16 05:58:59;;;;;;;6.15;3.70;;;;;;;;;;4927454;29;20028;-71
2022/06/16 06:01:25;;;;;;;6.65;4.22;;;;;;;;;;4930990;29;20739;-71
2022/06/16 06:03:50;;;;;;;15.52;4.07;;;24.00;98.00;;;;;;4921630;29;20083;-75
2022/06/16 06:06:16;;;;;;;12.38;4.05;;;24.10;91.00;;;;;;4931091;29;20062;-71
2022/06/16 06:17:00;;;;;;;6.43;3.47;;;24.50;96.90;;;;;;4931397;29;20094;-71
2022/06/16 06:19:26;;;;;;;10.95;4.32;;;24.30;90.60;;;;;;4925797;29;20649;-71
2022/06/16 06:21:59;;;;;;;5.57;3.28;;;;;;;;;;4926807;29;20056;-71
2022/06/16 06:24:29;;;;;;;9.02;3.72;;;;;;;;;;4930376;29;20034;-71
2022/06/16 06:26:56;;;;;;;14.75;4.70;;;;;;;;;;4936524;29;20040;-71
2022/06/16 06:29:22;;;;;;;9.65;3.67;;;;;;;;;;4927348;29;20042;-71
2022/06/16 06:31:48;;;;;;;8.02;3.45;;;;;;;;;;4931853;29;20440;-71
2022/06/16 06:34:14;;;;;;;7.90;3.35;;;;;;;;;;4929628;28;20036;-71
2022/06/16 06:36:40;;;;;;;4.35;2.83;;;25.10;95.70;;;;;;4927791;29;20049;-72
2022/06/16 06:39:06;;;;;;;8.90;3.63;;;;;;;;;;4925421;29;20063;-71
2022/06/16 06:41:32;;;;;;;10.93;4.63;;;;;;;;;;4938488;29;20027;-71
2022/06/16 06:43:59;;;;;;;5.65;3.17;;;;;;;;;;4926052;29;20027;-71
2022/06/16 06:46:25;;;;;;;7.93;3.33;;;;;;;;;;4928492;29;20036;-71
2022/06/16 06:48:51;;;;;;;8.63;2.83;;;;;;;;;;4925239;29;20645;-76
2022/06/16 06:51:17;;;;;;;9.73;3.58;;;;;;;;;;4925712;29;20147;-76
2022/06/16 06:53:43;;;;;;;11.73;2.70;;;26.70;94.00;;;;;;4914971;29;20446;-74
2022/06/16 06:56:10;;;;;;;8.85;4.25;;;;;;;;;;4928963;29;20028;-75
2022/06/16 06:58:36;;;;;;;14.07;3.45;;;;;;;;;;4923983;29;20031;-73
2022/06/16 07:01:01;;;;;;;11.40;3.88;;;;;;;;;;4927097;28;20429;-73
2022/06/16 07:03:29;;;;;;;10.40;2.63;;;27.30;72.30;;;;;;4920998;28;20055;-73
2022/06/16 07:05:55;;;;;;;9.27;3.15;;;;;;;;;;4927540;29;20106;-73
2022/06/16 07:08:22;;;;;;;5.28;2.40;;;;;;;;;;4931569;29;20560;-74
2022/06/16 07:10:49;;;;;;;6.82;2.38;;;;;;;;;;4924449;29;20420;-73
2022/06/16 07:13:15;;;;;;;11.77;2.60;;;;;;;;;;4921327;29;20035;-74
2022/06/16 07:15:41;;;;;;;8.32;2.63;;;;;;;;;;4934613;28;20050;-74
2022/06/16 07:18:07;;;;;;;5.28;2.08;;;;;;;;;;4928790;29;20039;-73
2022/06/16 07:20:33;;;;;;;7.65;2.30;;;;;;;;;;4920232;29;20096;-73
2022/06/16 07:22:59;;;;;;;8.40;2.28;;;;;;;;;;4918952;29;20031;-73
2022/06/16 07:25:25;;;;;;;8.73;3.13;;;;;;;;;;4927106;29;20038;-73
2022/06/16 07:27:53;;;;;;;5.68;1.55;;;;;;;;;;4927108;28;20031;-73
2022/06/16 07:30:20;;;;;;;4.55;2.55;;;29.60;77.50;;;;;;4935329;29;20031;-74
2022/06/16 07:32:47;;;;;;;5.78;1.75;;;30.40;58.00;;;;;;4910661;29;20186;-76
2022/06/16 07:35:15;;;;;;;10.00;2.25;;;31.20;55.20;;;;;;4926207;29;20039;-73
2022/06/16 07:37:41;;;;;;;4.00;2.10;;;;;;;;;;4932603;29;20743;-73
2022/06/16 07:40:08;;;;;;;3.72;1.65;;;33.40;64.80;;;;;;4930456;28;20063;-73
2022/06/16 07:42:34;;;;;;;5.55;2.53;;;;;;;;;;4927517;28;20461;-73
2022/06/16 07:45:00;;;;;;;;;;;35.30;44.60;;;;;;4927079;29;20036;-73
2022/06/16 07:47:27;;;;;;;2.97;1.00;;;;;;;;;;4931758;29;19925;-74
2022/06/16 07:49:53;;;;;;;4.80;1.83;;;;;;;;;;4930425;29;20047;-74
2022/06/16 07:52:19;;;;;;;1.95;1.20;;;;;;;;;;4918138;29;20040;-74
2022/06/16 07:54:46;;;;;;;5.50;2.05;;;;;;;;;;4926072;29;20035;-74
2022/06/16 07:57:12;;;;;;;3.30;1.30;;;;;;;;;;4927630;29;20557;-73
2022/06/16 07:59:38;;;;;;;10.90;1.95;;;;;;;;;;4933723;29;20158;-73
2022/06/16 08:02:04;;;;;;;5.57;2.42;;;;;;;;;;4916251;29;20852;-74
2022/06/16 08:04:30;;;;;;;6.78;1.50;;;;;;;;;;4926094;29;20535;-73
2022/06/16 08:07:00;;;;;;;5.55;1.50;;;;;;;;;;4924049;29;20497;-74
2022/06/16 08:09:27;;;;;;;6.75;1.80;;;40.00;36.80;;;;;;4926135;29;20585;-74
2022/06/16 08:12:08;;;;;;;8.75;3.60;;;;;;;;;;4929523;29;20114;-76
2022/06/16 08:14:39;;;;;;;6.50;1.95;;;40.40;36.30;;;;;;4939083;29;20043;-73
2022/06/16 08:17:10;;;;;;;2.95;1.70;;;40.70;35.40;;;;;;4930773;29;20593;-74
2022/06/16 08:19:37;;;;;;;11.93;10.75;;;;;;;;;;4930736;29;20105;-74
2022/06/16 08:22:03;;;;;;;5.50;2.17;;;;;;;;;;4922979;28;20106;-74
2022/06/16 08:24:29;;;;;;;3.53;1.50;;;;;;;;;;4921551;29;20035;-73
2022/06/16 08:26:56;;;;;;;5.53;2.53;;;41.60;36.30;;;;;;4930849;29;20575;-73
2022/06/16 08:29:22;;;;;;;14.32;2.65;;;41.70;51.90;;;;;;4941435;29;20034;-74
2022/06/16 08:31:48;;;;;;;7.70;1.80;;;;;;;;;;4931154;28;20028;-73
2022/06/16 08:34:14;;;;;;;5.32;1.42;;;;;;;;;;4916571;29;20394;-73
2022/06/16 08:36:40;;;;;;;;;;;41.00;36.10;;;;;;4932278;28;20032;-74
2022/06/16 08:39:07;;;;;;;7.78;1.60;;;41.00;38.30;;;;;;4929311;29;20514;-78
2022/06/16 08:41:48;;;;;;;2.92;1.80;;;41.30;36.10;;;;;;4938219;29;20027;-76
2022/06/16 08:44:27;;;;;;;9.70;1.88;;;41.10;35.60;;;;;;4919712;29;20032;-76
2022/06/16 08:47:09;;;;;;;4.53;1.65;;;41.70;35.00;;;;;;4927713;29;20681;-78
2022/06/16 08:49:43;;;;;;;3.10;1.17;;;42.00;34.90;;;;;;4929027;29;20058;-75
2022/06/16 08:52:22;;;;;;;2.08;1.48;;;;;;;;;;4923414;29;20031;-75
2022/06/16 08:55:12;;;;;;;3.20;1.80;;;40.80;35.60;;;;;;4924276;29;20036;-74
2022/06/16 08:57:51;;;;;;;2.95;1.58;;;41.20;34.80;;;;;;4929829;29;20572;-75
2022/06/16 09:00:31;;;;;;;9.07;1.63;;;41.10;34.30;;;;;;4932746;29;20751;-74
2022/06/16 09:03:19;;;;;;;3.03;1.48;;;41.40;34.40;;;;;;4919596;28;20036;-74
2022/06/16 09:06:09;;;;;;;6.43;1.30;;;41.30;34.40;;;;;;4941788;28;20086;-75
2022/06/16 09:08:51;;;;;;;3.63;1.40;;;;;;;;;;4925927;29;20477;-75
2022/06/16 09:11:24;;;;;;;5.60;1.50;;;41.20;34.40;;;;;;4937841;29;20457;-74
2022/06/16 09:14:11;;;;;;;3.40;1.35;;;40.90;34.30;;;;;;4927816;29;20111;-74
2022/06/16 09:16:55;;;;;;;4.22;1.35;;;;;;;;;;4931849;29;20138;-74
2022/06/16 09:19:30;;;;;;;7.82;1.52;;;;;;;;;;4927297;28;20122;-75
2022/06/16 09:22:20;;;;;;;5.30;1.10;;;40.50;33.40;;;;;;4919268;29;20024;-74
2022/06/16 09:24:57;;;;;;;2.30;1.10;;;;;;;;;;4925717;29;20386;-75
2022/06/16 09:27:37;;;;;;;4.07;1.30;;;40.50;34.10;;;;;;4941637;29;20114;-76
2022/06/16 09:30:15;;;;;;;4.55;1.92;;;;;;;;;;4927036;29;20078;-78
2022/06/16 09:32:53;;;;;;;4.75;1.58;;;40.80;34.50;;;;;;4921241;29;20074;-74
2022/06/16 09:35:24;;;;;;;4.63;1.40;;;40.90;34.50;;;;;;4928696;29;20036;-75
2022/06/16 09:38:02;;;;;;;3.33;1.60;;;41.50;33.70;;;;;;4925646;29;20039;-77
2022/06/16 09:40:35;;;;;;;3.75;1.13;;;41.90;33.70;;;;;;4927246;29;20036;-77
2022/06/16 09:43:35;;;;;;;5.22;1.58;;;42.10;32.20;;;;;;4919281;28;20504;-77
2022/06/16 09:46:01;;;;;;;3.75;1.42;;;;;;;;;;4926704;29;20043;-77
2022/06/16 09:48:36;;;;;;;8.48;1.33;;;;;;;;;;4931790;29;20039;-79
2022/06/16 09:51:17;;;;;;;3.10;1.30;;;42.50;31.70;;;;;;4926096;29;20028;-77
2022/06/16 09:53:55;;;;;;;11.25;1.60;;;42.40;38.30;;;;;;4914875;29;20090;-77
2022/06/16 09:56:50;;;;;;;3.70;1.40;;;42.00;32.80;;;;;;4924650;29;20645;-77
2022/06/16 09:59:32;;;;;;;10.68;1.60;;;42.00;32.30;;;;;;4954854;28;20035;-77
2022/06/16 10:02:01;;;;;;;2.20;0.95;;;;;;;;;;4930067;29;20039;-75
2022/06/16 10:04:27;;;;;;;2.95;1.65;;;;;;;;;;4919771;29;20066;-74
2022/06/16 10:06:55;;;;;;;;;;;42.40;31.90;;;;;;4921285;29;20082;-77
2022/06/16 10:09:39;;;;;;;4.47;1.40;;;42.40;32.70;;;;;;4945979;28;20021;-76
2022/06/16 10:12:05;;;;;;;4.75;1.10;;;;;;;;;;4922830;29;20038;-76
2022/06/16 10:14:46;;;;;;;9.18;1.92;;;41.90;32.50;;;;;;4919945;29;20035;-77
2022/06/16 10:17:15;;;;;;;3.42;1.40;;;;;;;;;;4929252;29;20062;-77
2022/06/16 10:19:45;;;;;;;7.45;2.65;;;41.60;34.10;;;;;;4930292;29;20042;-75
2022/06/16 10:22:14;;;;;;;5.07;2.28;;;;;;;;;;4914618;28;20046;-76
2022/06/16 10:25:11;;;;;;;10.00;2.28;;;39.30;36.90;;;;;;4921683;29;20034;-75
2022/06/16 10:27:59;;;;;;;5.25;1.80;;;38.50;37.50;;;;;;4926627;29;20047;-75
2022/06/16 10:30:25;;;;;;;2.58;1.98;;;;;;;;;;4946519;29;20094;-76
2022/06/16 10:33:16;;;;;;;7.53;1.50;;;39.00;38.10;;;;;;4910579;29;20505;-75
2022/06/16 10:36:11;;;;;;;10.85;4.38;;;;;;;;;;4923370;29;20043;-75
2022/06/16 10:38:40;;;;;;;3.28;1.60;;;38.50;39.20;;;;;;4971479;28;20065;-75
2022/06/16 10:41:29;;;;;;;9.07;2.33;;;;;;;;;;4966235;28;20566;-75
2022/06/16 10:43:55;;;;;;;3.35;2.00;;;;;;;;;;4926902;28;20050;-75
2022/06/16 10:46:22;;;;;;;;;;;37.90;38.90;;;;;;4964059;28;20123;-75
2022/06/16 10:48:55;;;;;;;5.22;1.70;;;38.20;48.60;;;;;;4950549;28;19918;-76
2022/06/16 10:51:22;;;;;;;7.90;1.73;;;;;;;;;;4959621;28;20134;-75
2022/06/16 10:54:02;;;;;;;3.13;1.85;;;37.00;40.10;;;;;;4934195;28;20451;-75
2022/06/16 10:56:28;;;;;;;5.88;3.13;;;;;;;;;;4976321;28;20069;-75
2022/06/16 10:59:02;;;;;;;3.50;2.00;;;36.80;40.60;;;;;;4960548;28;20591;-75
2022/06/16 11:01:35;;;;;;;7.35;2.85;;;37.00;40.50;;;;;;4957664;28;20055;-75
2022/06/16 11:04:19;;;;;;;4.43;2.08;;;37.40;40.40;;;;;;4938831;28;20027;-75
2022/06/16 11:06:48;;;;;;;3.08;1.48;;;37.30;40.00;;;;;;4955986;28;20046;-75
2022/06/16 11:09:18;;;;;;;8.15;3.05;;;;;;;;;;4960730;28;20034;-75
2022/06/16 11:11:52;;;;;;;3.15;1.95;;;;;;;;;;4975357;28;20038;-76
2022/06/16 11:14:34;;;;;;;5.47;2.42;;;37.30;39.60;;;;;;4935259;28;20044;-76
2022/06/16 11:17:02;;;;;;;6.18;2.15;;;36.90;39.30;;;;;;4932692;29;20078;-75
2022/06/16 11:19:30;;;;;;;5.13;1.70;;;;;;;;;;4925074;28;20034;-76
2022/06/16 11:21:57;;;;;;;3.53;1.60;;;;;;;;;;4918267;29;20037;-76
2022/06/16 11:24:31;;;;;;;5.03;2.85;;;35.10;41.10;;;;;;4917287;29;20023;-75
2022/06/16 11:27:23;;;;;;;3.05;1.50;;;;;;;;;;4935114;29;20075;-75
2022/06/16 11:29:50;;;;;;;5.25;1.98;;;;;;;;;;4928289;28;20123;-75
2022/06/16 11:32:17;;;;;;;7.32;1.83;;;;;;;;;;4915110;29;20726;-76
2022/06/16 11:34:44;;;;;;;3.00;1.50;;;;;;;;;;4926124;29;20027;-75
2022/06/16 11:37:12;;;;;;;3.45;1.65;;;;;;;;;;4923728;28;20405;-75
2022/06/16 11:39:49;;;;;;;3.65;1.63;;;33.80;42.50;;;;;;4928341;28;20040;-76
2022/06/16 11:42:31;;;;;;;4.90;2.00;;;;;;;;;;4921654;29;20035;-75
2022/06/16 11:45:15;;;;;;;6.43;2.10;;;;;;;;;;4928005;29;20039;-75
2022/06/16 11:47:59;;;;;;;6.65;2.50;;;;;;;;;;4931973;29;20515;-75
2022/06/16 11:50:57;;;;;;;4.70;2.40;;;33.20;45.70;;;;;;4932411;29;20063;-75
2022/06/16 11:53:42;;;;;;;4.30;2.00;;;;;;;;;;4918741;29;20032;-80
2022/06/16 11:56:16;;;;;;;3.38;1.50;;;;;;;;;;4937880;29;20496;-74
2022/06/16 11:59:00;;;;;;;6.43;2.45;;;32.30;54.70;;;;;;4927905;28;20027;-78
2022/06/16 12:01:41;;;;;;;4.18;1.88;;;32.40;45.50;;;;;;4931725;29;20031;-78
2022/06/16 12:04:28;;;;;;;6.78;3.15;;;32.40;46.30;;;;;;4914194;29;20498;-77
2022/06/16 12:07:14;;;;;;;4.40;1.65;;;32.60;46.40;;;;;;4925407;29;20122;-75
2022/06/16 12:09:57;;;;;;;4.10;3.38;;;;;;;;;;4922060;29;20035;-74
2022/06/16 12:12:23;;;;;;;2.55;1.92;;;;;;;;;;4921248;29;20040;-75
2022/06/16 12:14:52;;;;;;;5.33;1.77;;;32.70;44.40;;;;;;4930427;29;20057;-75
2022/06/16 12:17:18;;;;;;;2.72;2.08;;;;;;;;;;4932244;29;20035;-76
2022/06/16 12:20:13;;;;;;;4.50;1.80;;;32.40;44.50;;;;;;4936010;29;20059;-74
2022/06/16 12:22:57;;;;;;;3.70;2.10;;;32.50;46.20;;;;;;4917499;29;20039;-74
2022/06/16 12:25:33;;;;;;;2.88;2.30;;;;;;;;;;4928598;29;20398;-74
2022/06/16 12:28:09;;;;;;;3.57;2.47;;;31.90;44.50;;;;;;4927613;29;20036;-73
2022/06/16 12:30:56;;;;;;;10.00;3.03;;;;;;;;;;4929727;29;20689;-74
2022/06/16 12:33:25;;;;;;;2.78;1.65;;;;;;;;;;4917929;29;20028;-74
2022/06/16 12:36:00;;;;;;;4.20;2.28;;;;;;;;;;4925466;29;20433;-73
2022/06/16 12:38:49;;;;;;;5.65;2.47;;;31.40;45.70;;;;;;4924703;29;20035;-74
2022/06/16 12:41:24;;;;;;;3.67;1.88;;;31.60;46.20;;;;;;4932083;29;20067;-75
2022/06/16 12:43:55;;;;;;;2.22;1.55;;;;;;;;;;4923617;29;20057;-74
2022/06/16 12:46:38;;;;;;;3.60;2.33;;;;;;;;;;4934329;28;20043;-75
2022/06/16 12:49:11;;;;;;;2.25;1.60;;;;;;;;;;4932091;28;20027;-76
2022/06/16 12:51:52;;;;;;;3.53;1.70;;;31.80;46.50;;;;;;4933170;28;20046;-75
2022/06/16 12:54:23;;;;;;;5.05;1.95;;;;;;;;;;4916617;29;20437;-76
2022/06/16 12:56:50;;;;;;;3.72;1.85;;;31.80;44.70;;;;;;4937080;29;20044;-77
2022/06/16 12:59:24;;;;;;;6.82;2.13;;;;;;;;;;4940301;29;20106;-75
2022/06/16 13:01:51;;;;;;;3.80;1.70;;;;;;;;;;4924892;28;20031;-74
2022/06/16 13:04:22;;;;;;;3.00;1.70;;;31.30;44.60;;;;;;4917326;29;20028;-74
2022/06/16 13:06:48;;;;;;;3.55;2.03;;;;;;;;;;4924576;29;20066;-77
2022/06/16 13:09:14;;;;;;;5.25;1.80;;;;;;;;;;4928176;29;20059;-78
2022/06/16 13:11:46;;;;;;;2.92;1.50;;;;;;;;;;4928200;29;20444;-75
2022/06/16 13:14:14;;;;;;;2.55;1.90;;;;;;;;;;4920589;29;20035;-74
2022/06/16 13:16:42;;;;;;;2.17;1.70;;;;;;;;;;4928580;29;20047;-75
2022/06/16 13:19:16;;;;;;;3.08;2.28;;;31.30;46.30;;;;;;4925950;29;20064;-74
2022/06/16 13:21:51;;;;;;;11.45;1.55;;;31.40;45.60;;;;;;4927334;29;20043;-77
2022/06/16 13:24:23;;;;;;;2.88;1.75;;;31.40;45.10;;;;;;4917995;29;20441;-78
2022/06/16 13:27:07;;;;;;;5.40;2.17;;;31.40;45.40;;;;;;4947354;28;20054;-75
2022/06/16 13:30:05;;;;;;;3.63;2.00;;;31.40;45.40;;;;;;4928052;29;20027;-75
2022/06/16 13:32:40;;;;;;;3.08;1.92;;;;;;;;;;4918082;29;20032;-77
2022/06/16 13:35:12;;;;;;;4.70;1.73;;;31.50;45.50;;;;;;4924126;29;20047;-75
2022/06/16 13:37:48;;;;;;;2.38;1.60;;;31.60;46.10;;;;;;4929605;29;20059;-77
2022/06/16 13:40:16;;;;;;;4.90;1.63;;;31.80;45.70;;;;;;4939581;29;20038;-76
2022/06/16 13:42:51;;;;;;;10.98;1.92;;;;;;;;;;4915708;29;20059;-75
2022/06/16 13:45:25;;;;;;;3.75;1.67;;;31.80;45.00;;;;;;4928280;29;20146;-74
2022/06/16 13:48:06;;;;;;;3.03;1.75;;;31.80;45.30;;;;;;4929432;28;20032;-74
2022/06/16 13:50:56;;;;;;;4.10;1.63;;;31.80;45.20;;;;;;4924832;29;20023;-75
2022/06/16 13:53:31;;;;;;;4.63;1.90;;;;;;;;;;4910675;29;20078;-74
2022/06/16 13:55:59;;;;;;;5.28;1.55;;;;;;;;;;4926070;29;20066;-74
2022/06/16 13:58:30;;;;;;;3.38;1.98;;;;;;;;;;4924703;29;20533;-74
2022/06/16 14:01:08;;;;;;;3.65;1.90;;;31.30;45.40;;;;;;4924817;29;20039;-74
2022/06/16 14:03:35;;;;;;;9.18;2.08;;;31.30;46.40;;;;;;4913681;29;20024;-74
2022/06/16 14:06:09;;;;;;;3.53;1.77;;;31.40;45.20;;;;;;4925158;29;20496;-74
2022/06/16 14:08:43;;;;;;;4.75;2.63;;;31.50;45.50;;;;;;4941559;28;20031;-73
2022/06/16 14:11:20;;;;;;;5.95;1.70;;;31.50;45.50;;;;;;4928632;29;20027;-74
2022/06/16 14:14:04;;;;;;;2.83;1.67;;;31.50;44.90;;;;;;4913725;29;20530;-74
2022/06/16 14:16:38;;;;;;;6.82;1.92;;;;;;;;;;4929261;29;20513;-74
2022/06/16 14:19:16;;;;;;;2.67;1.85;;;;;;;;;;4928043;29;20471;-74
2022/06/16 14:21:42;;;;;;;4.13;1.30;;;;;;;;;;4921926;29;20027;-74
2022/06/16 14:24:10;;;;;;;5.30;2.07;;;;;;;;;;4913565;29;20071;-75
2022/06/16 14:26:40;;;;;;;3.53;2.25;;;32.00;44.70;;;;;;4927007;29;20046;-74
2022/06/16 14:29:12;;;;;;;26.50;2.97;;;32.10;44.30;;;;;;4937981;29;20050;-73
2022/06/16 14:31:40;;;;;;;2.22;1.30;;;;;;;;;;4926724;28;20508;-74
2022/06/16 14:34:15;;;;;;;2.50;1.83;;;32.10;43.90;;;;;;4907038;29;20059;-74